Time;durP1;ratioP1;P1;durP2;ratioP2;P2;SDS_P1;SDS_P2;PMS_P1;PMS_P2;Temp;Humidity;BMP_temperature;BMP_pressure;BME280_temperature;BME280_humidity;BME280_pressure;Samples;Min_cycle;Max_cycle;Signal;HPM_P1;HPM_P2
2022/11/18 00:02:33;;;;;;;7.97;5.80;;;9.10;99.90;;;;;;10546673;27;20440;-77
2022/11/18 00:07:34;;;;;;;11.17;6.07;;;9.10;99.90;;;;;;10520535;28;20220;-78
2022/11/18 00:17:54;;;;;;;8.67;6.27;;;9.20;99.90;;;;;;10532078;28;20225;-80
2022/11/18 00:22:55;;;;;;;11.57;7.63;;;9.20;99.90;;;;;;10529516;28;20601;-80
2022/11/18 00:27:55;;;;;;;8.60;6.60;;;9.30;99.90;;;;;;10514544;28;20288;-75
2022/11/18 00:32:56;;;;;;;9.00;6.87;;;9.30;99.90;;;;;;10553631;27;20260;-80
2022/11/18 00:37:57;;;;;;;10.30;7.10;;;9.40;99.90;;;;;;10518360;28;20811;-78
2022/11/18 00:42:59;;;;;;;8.67;6.10;;;9.50;99.90;;;;;;10513309;28;20217;-79
2022/11/18 00:48:01;;;;;;;9.07;6.10;;;9.50;99.90;;;;;;10534188;28;20218;-79
2022/11/18 00:53:02;;;;;;;7.63;5.53;;;9.50;99.90;;;;;;10521923;28;20217;-80
2022/11/18 00:58:03;;;;;;;8.57;5.77;;;9.60;99.90;;;;;;10565155;27;20233;-80
2022/11/18 01:03:04;;;;;;;7.10;4.90;;;9.50;99.90;;;;;;10531939;28;21050;-76
2022/11/18 01:08:07;;;;;;;6.70;4.40;;;9.60;99.90;;;;;;10540177;27;20218;-76
2022/11/18 01:13:18;;;;;;;5.10;4.47;;;9.60;99.90;;;;;;10532876;28;20217;-77
2022/11/18 01:18:23;;;;;;;6.13;4.43;;;9.70;99.90;;;;;;10560685;27;20226;-77
2022/11/18 01:23:24;;;;;;;5.07;4.27;;;9.70;99.90;;;;;;10548661;27;20370;-80
2022/11/18 01:28:24;;;;;;;5.10;4.03;;;9.70;99.90;;;;;;10559295;27;20303;-79
2022/11/18 01:33:25;;;;;;;5.97;4.17;;;9.70;99.90;;;;;;10548010;27;20222;-80
2022/11/18 01:38:27;;;;;;;6.57;4.20;;;9.70;99.90;;;;;;10529280;28;20218;-77
2022/11/18 01:43:47;;;;;;;8.93;4.20;;;9.80;99.90;;;;;;10533056;28;20619;-77
2022/11/18 01:48:56;;;;;;;5.90;3.80;;;9.80;99.90;;;;;;10519147;28;20265;-78
2022/11/18 01:54:04;;;;;;;8.00;3.80;;;9.80;99.90;;;;;;10527091;28;20218;-78
2022/11/18 01:59:12;;;;;;;6.83;3.57;;;9.80;99.90;;;;;;10515079;28;20312;-78
2022/11/18 02:04:14;;;;;;;7.23;4.00;;;9.80;99.90;;;;;;10530795;28;20262;-78
2022/11/18 02:09:15;;;;;;;5.23;4.00;;;9.80;99.90;;;;;;10523060;28;20670;-77
2022/11/18 02:14:37;;;;;;;5.30;4.20;;;9.80;99.90;;;;;;10526243;28;20205;-77
2022/11/18 02:19:46;;;;;;;5.73;4.07;;;9.80;99.90;;;;;;10532978;28;20224;-82
2022/11/18 02:25:25;;;;;;;5.43;3.80;;;9.70;99.90;;;;;;10563481;27;20781;-83
2022/11/18 02:30:27;;;;;;;8.43;4.73;;;9.60;99.90;;;;;;10540112;28;20740;-83
2022/11/18 02:35:53;;;;;;;5.17;4.03;;;9.70;99.90;;;;;;10568599;27;20248;-82
2022/11/18 02:41:11;;;;;;;6.80;3.80;;;9.60;99.90;;;;;;10572286;27;20233;-82
2022/11/18 02:46:19;;;;;;;5.90;4.00;;;9.60;99.90;;;;;;10530442;27;20215;-84
2022/11/18 02:51:24;;;;;;;4.47;3.70;;;9.60;99.90;;;;;;10539473;27;20224;-83
2022/11/18 02:56:32;;;;;;;5.57;3.43;;;9.60;99.90;;;;;;10543638;28;20233;-83
2022/11/18 03:01:35;;;;;;;4.40;3.23;;;9.60;99.90;;;;;;10529202;28;20392;-80
2022/11/18 03:06:38;;;;;;;6.67;3.43;;;9.70;99.90;;;;;;10543103;28;20249;-81
2022/11/18 03:11:55;;;;;;;4.83;3.47;;;9.70;99.90;;;;;;10560703;27;20328;-77
2022/11/18 03:17:00;;;;;;;4.57;3.60;;;9.70;99.90;;;;;;10534352;28;20801;-76
2022/11/18 03:22:22;;;;;;;5.97;4.17;;;9.70;99.90;;;;;;10525782;28;20213;-75
2022/11/18 03:27:35;;;;;;;4.30;3.80;;;9.70;99.90;;;;;;10535430;28;20583;-74
2022/11/18 03:32:41;;;;;;;5.60;4.07;;;9.70;99.90;;;;;;10532014;28;20309;-75
2022/11/18 03:37:43;;;;;;;5.67;4.67;;;9.80;99.90;;;;;;10526495;28;20229;-75
2022/11/18 03:42:48;;;;;;;10.43;5.23;;;9.80;99.90;;;;;;10519313;28;20217;-74
2022/11/18 03:47:58;;;;;;;6.63;5.20;;;9.70;99.90;;;;;;10559178;27;20621;-74
2022/11/18 03:53:01;;;;;;;6.33;5.00;;;9.80;99.90;;;;;;10529865;28;20631;-75
2022/11/18 03:58:17;;;;;;;10.40;6.37;;;9.70;99.90;;;;;;10524318;28;20264;-76
2022/11/18 04:03:18;;;;;;;9.73;6.73;;;9.70;99.90;;;;;;10526836;28;20223;-75
2022/11/18 04:08:23;;;;;;;10.73;7.47;;;9.70;99.90;;;;;;10516804;28;20313;-75
2022/11/18 04:13:30;;;;;;;7.80;6.67;;;9.80;99.90;;;;;;10524888;28;20630;-74
2022/11/18 04:18:30;;;;;;;10.33;7.10;;;9.80;99.90;;;;;;10550005;27;20309;-76
2022/11/18 04:23:31;;;;;;;9.47;7.40;;;9.70;99.90;;;;;;10521558;28;20778;-77
2022/11/18 04:28:35;;;;;;;13.40;7.33;;;9.60;99.90;;;;;;10533921;28;20217;-79
2022/11/18 04:33:42;;;;;;;9.17;6.90;;;9.60;99.90;;;;;;10532959;28;20214;-81
2022/11/18 04:38:42;;;;;;;11.17;8.60;;;9.60;99.90;;;;;;10533211;28;20312;-79
2022/11/18 04:43:43;;;;;;;9.40;8.20;;;9.50;99.90;;;;;;10532000;28;20209;-80
2022/11/18 04:48:44;;;;;;;8.80;7.43;;;9.50;99.90;;;;;;10534209;28;20258;-79
2022/11/18 04:53:44;;;;;;;9.87;7.53;;;9.50;99.90;;;;;;10530526;28;20667;-77
2022/11/18 04:58:45;;;;;;;11.77;8.03;;;9.50;99.90;;;;;;10525241;28;20228;-77
2022/11/18 05:03:45;;;;;;;9.67;8.60;;;9.50;99.90;;;;;;10525166;28;20226;-76
2022/11/18 05:08:46;;;;;;;10.53;8.17;;;9.60;99.90;;;;;;10525107;28;20225;-79
2022/11/18 05:13:49;;;;;;;9.53;8.13;;;9.60;99.90;;;;;;10530795;28;20220;-75
2022/11/18 05:18:52;;;;;;;9.80;8.47;;;9.60;99.90;;;;;;10521516;28;20228;-74
2022/11/18 05:23:52;;;;;;;13.17;9.50;;;9.50;99.90;;;;;;10523196;28;20771;-73
2022/11/18 05:28:55;;;;;;;14.37;9.80;;;9.50;99.90;;;;;;10525844;28;20247;-74
2022/11/18 05:33:55;;;;;;;11.07;9.57;;;9.50;99.90;;;;;;10522214;28;20229;-74
2022/11/18 05:38:59;;;;;;;11.07;9.63;;;9.50;99.90;;;;;;10527002;28;20243;-74
2022/11/18 05:44:01;;;;;;;14.57;10.20;;;9.40;99.90;;;;;;10521576;28;20226;-75
2022/11/18 05:49:03;;;;;;;13.27;9.97;;;9.40;99.90;;;;;;10529790;28;20224;-74
2022/11/18 05:54:07;;;;;;;14.53;11.20;;;9.40;99.90;;;;;;10525457;28;20720;-74
2022/11/18 05:59:10;;;;;;;15.93;12.13;;;9.30;99.90;;;;;;10522676;28;20240;-76
2022/11/18 06:04:23;;;;;;;19.03;13.50;;;9.40;99.90;;;;;;10527132;28;20225;-83
2022/11/18 06:09:27;;;;;;;15.03;12.77;;;9.40;99.90;;;;;;10523270;28;20213;-71
2022/11/18 06:14:36;;;;;;;15.53;12.27;;;9.40;99.90;;;;;;10520930;28;20243;-74
2022/11/18 06:19:37;;;;;;;16.73;12.23;;;9.50;99.90;;;;;;10529566;28;20635;-74
2022/11/18 06:24:38;;;;;;;15.00;12.73;;;9.50;99.90;;;;;;10513358;28;20225;-75
2022/11/18 06:29:38;;;;;;;15.67;11.80;;;9.50;99.90;;;;;;10529226;28;20270;-74
2022/11/18 06:34:39;;;;;;;12.60;11.23;;;9.60;99.90;;;;;;10519784;28;20361;-75
2022/11/18 06:39:40;;;;;;;15.97;13.37;;;9.60;99.90;;;;;;10525014;28;20225;-75
2022/11/18 06:44:40;;;;;;;17.50;13.10;;;9.70;99.90;;;;;;10522630;28;20217;-74
2022/11/18 06:49:41;;;;;;;15.43;12.10;;;9.80;99.90;;;;;;10529383;28;20700;-75
2022/11/18 06:54:41;;;;;;;12.27;10.50;;;9.80;99.90;;;;;;10523637;28;20229;-72
2022/11/18 06:59:42;;;;;;;11.17;9.47;;;9.80;99.90;;;;;;10513739;28;20680;-74
2022/11/18 07:04:43;;;;;;;11.00;8.90;;;9.80;99.90;;;;;;10555207;28;20826;-71
2022/11/18 07:09:44;;;;;;;10.13;7.77;;;9.80;99.90;;;;;;10528167;28;20281;-73
2022/11/18 07:14:44;;;;;;;7.30;6.03;;;9.70;99.90;;;;;;10514262;28;20611;-73
2022/11/18 07:19:45;;;;;;;6.57;5.67;;;9.60;99.90;;;;;;10525153;28;20257;-72
2022/11/18 07:24:45;;;;;;;7.57;4.80;;;9.60;99.90;;;;;;10534464;28;20305;-73
2022/11/18 07:29:46;;;;;;;7.50;4.80;;;9.60;99.90;;;;;;10562383;27;20717;-73
2022/11/18 07:34:47;;;;;;;6.23;4.90;;;9.60;99.90;;;;;;10518848;28;20229;-73
2022/11/18 07:39:47;;;;;;;7.50;5.00;;;9.60;99.90;;;;;;10533855;28;20316;-72
2022/11/18 07:44:48;;;;;;;8.30;4.17;;;9.60;99.90;;;;;;10557436;27;20310;-73
2022/11/18 07:49:49;;;;;;;8.40;4.07;;;9.70;99.90;;;;;;10525380;28;20695;-74
2022/11/18 07:54:49;;;;;;;6.57;4.30;;;9.70;99.90;;;;;;10564732;27;20229;-73
2022/11/18 07:59:50;;;;;;;8.13;4.30;;;9.70;99.90;;;;;;10528141;28;20230;-77
2022/11/18 08:04:50;;;;;;;8.00;3.90;;;9.80;99.90;;;;;;10565497;27;20292;-76
2022/11/18 08:09:51;;;;;;;6.23;3.50;;;9.80;99.90;;;;;;10526792;28;20226;-74
2022/11/18 08:14:51;;;;;;;5.17;2.93;;;9.80;99.90;;;;;;10559421;27;20220;-74
2022/11/18 08:19:52;;;;;;;7.50;3.07;;;9.80;99.90;;;;;;10525748;28;20226;-76
2022/11/18 08:24:53;;;;;;;3.13;2.00;;;9.70;99.90;;;;;;10532030;28;20237;-74
2022/11/18 08:29:53;;;;;;;3.10;1.60;;;9.70;99.90;;;;;;10519120;28;20255;-75
2022/11/18 08:34:54;;;;;;;1.40;1.13;;;9.70;99.90;;;;;;10563286;27;20345;-75
2022/11/18 08:39:54;;;;;;;1.60;1.47;;;9.70;99.90;;;;;;10563810;27;20233;-75
2022/11/18 08:44:55;;;;;;;2.83;1.77;;;9.80;99.90;;;;;;10531178;28;20229;-73
2022/11/18 08:49:55;;;;;;;2.57;1.67;;;10.00;99.90;;;;;;10530556;28;20264;-75
2022/11/18 08:54:56;;;;;;;4.27;1.83;;;10.00;99.90;;;;;;10530269;28;20711;-76
2022/11/18 08:59:58;;;;;;;2.00;1.63;;;10.10;99.90;;;;;;10521827;28;20355;-76
2022/11/18 09:04:58;;;;;;;2.90;1.33;;;10.10;99.90;;;;;;10530973;28;20222;-76
2022/11/18 09:09:59;;;;;;;3.13;1.43;;;10.10;99.90;;;;;;10547892;27;20628;-76
2022/11/18 09:15:00;;;;;;;1.63;1.53;;;10.00;99.90;;;;;;10524057;28;20236;-77
2022/11/18 09:20:00;;;;;;;2.37;1.47;;;9.90;99.90;;;;;;10524380;28;20232;-76
2022/11/18 09:25:01;;;;;;;2.93;1.53;;;10.00;99.90;;;;;;10523532;28;20619;-77
2022/11/18 09:30:02;;;;;;;3.77;1.80;;;10.00;99.90;;;;;;10523829;28;20267;-76
2022/11/18 09:35:03;;;;;;;1.57;1.33;;;10.00;99.90;;;;;;10554213;27;20295;-76
2022/11/18 09:40:12;;;;;;;4.77;1.83;;;10.00;99.90;;;;;;10523597;28;20229;-77
2022/11/18 09:45:15;;;;;;;2.67;2.20;;;10.10;99.90;;;;;;10530579;28;20240;-76
2022/11/18 09:50:19;;;;;;;2.13;1.80;;;10.10;99.90;;;;;;10530513;28;20191;-78
2022/11/18 09:55:20;;;;;;;1.93;1.70;;;10.30;99.90;;;;;;10514559;28;20185;-77
2022/11/18 10:00:24;;;;;;;2.13;1.90;;;10.50;99.90;;;;;;10522026;28;21019;-76
2022/11/18 10:05:28;;;;;;;2.63;2.03;;;10.80;99.90;;;;;;10523121;28;20221;-77
2022/11/18 10:10:58;;;;;;;2.30;1.60;;;11.30;99.90;;;;;;10528081;28;20585;-76
2022/11/18 10:16:05;;;;;;;5.33;2.30;;;11.60;99.90;;;;;;10526366;28;20224;-77
2022/11/18 10:21:23;;;;;;;3.03;1.90;;;12.10;99.90;;;;;;10528126;28;20257;-76
2022/11/18 10:26:38;;;;;;;3.93;1.53;;;12.60;99.90;;;;;;10526057;28;20217;-77
2022/11/18 10:31:51;;;;;;;2.10;1.80;;;12.90;99.90;;;;;;10526726;28;20209;-77
2022/11/18 10:37:25;;;;;;;6.90;1.90;;;13.10;99.90;;;;;;10554708;28;20239;-76
2022/11/18 10:42:33;;;;;;;2.67;1.87;;;13.00;99.90;;;;;;10523220;28;20575;-76
2022/11/18 10:47:34;;;;;;;2.90;1.90;;;12.60;99.90;;;;;;10561727;27;20304;-76
2022/11/18 10:52:52;;;;;;;2.70;1.90;;;12.20;99.90;;;;;;10536017;28;20220;-78
2022/11/18 10:57:59;;;;;;;2.87;2.30;;;12.00;99.90;;;;;;10536974;28;20364;-76
2022/11/18 11:03:13;;;;;;;3.37;2.60;;;11.90;99.90;;;;;;10530671;28;20218;-76
2022/11/18 11:08:22;;;;;;;3.10;2.53;;;11.80;99.90;;;;;;10533073;28;20240;-78
2022/11/18 11:13:27;;;;;;;3.27;2.00;;;11.70;99.90;;;;;;10522293;28;20221;-77
2022/11/18 11:18:41;;;;;;;3.03;2.67;;;11.80;99.90;;;;;;10531551;28;20225;-77
2022/11/18 11:23:42;;;;;;;3.73;2.80;;;11.90;99.90;;;;;;10567435;27;20676;-77
2022/11/18 11:29:08;;;;;;;5.90;2.70;;;11.90;99.90;;;;;;10552586;27;20225;-76
2022/11/18 11:34:34;;;;;;;4.27;2.70;;;11.90;99.90;;;;;;10561200;27;20569;-76
2022/11/18 11:39:39;;;;;;;6.13;3.20;;;11.90;99.90;;;;;;10528295;28;20225;-79
2022/11/18 11:44:58;;;;;;;3.47;2.90;;;12.00;99.90;;;;;;10533094;28;20248;-76
2022/11/18 11:50:27;;;;;;;3.00;2.70;;;12.30;99.90;;;;;;10534068;28;20757;-73
2022/11/18 11:55:54;;;;;;;2.77;2.50;;;12.80;99.90;;;;;;10545319;27;20750;-73
2022/11/18 12:01:23;;;;;;;5.27;2.13;;;13.00;99.90;;;;;;10543262;28;20253;-73
2022/11/18 12:06:25;;;;;;;5.53;2.33;;;12.80;99.90;;;;;;10529677;28;20704;-74
2022/11/18 12:11:51;;;;;;;3.70;2.30;;;12.70;99.90;;;;;;10534104;28;20275;-75
2022/11/18 12:17:00;;;;;;;3.30;2.20;;;12.70;99.90;;;;;;10533571;28;20317;-75
2022/11/18 12:22:02;;;;;;;3.33;2.50;;;12.70;99.90;;;;;;10532410;28;20646;-74
2022/11/18 12:27:09;;;;;;;4.73;2.63;;;12.80;99.90;;;;;;10532662;28;20315;-75
2022/11/18 12:32:30;;;;;;;4.53;2.47;;;12.90;99.90;;;;;;10564135;27;20315;-74
2022/11/18 12:37:31;;;;;;;3.70;2.33;;;12.80;99.90;;;;;;10523077;28;20262;-74
2022/11/18 12:47:57;;;;;;;4.47;2.90;;;12.50;99.90;;;;;;10528911;28;20225;-74
2022/11/18 12:52:58;;;;;;;3.00;2.40;;;12.30;99.90;;;;;;10530700;28;20218;-74
2022/11/18 12:57:59;;;;;;;3.60;3.27;;;12.00;99.90;;;;;;10529641;28;20217;-74
2022/11/18 13:03:00;;;;;;;5.80;3.50;;;11.70;99.90;;;;;;10526038;28;20665;-74
2022/11/18 13:08:12;;;;;;;4.77;3.40;;;11.60;99.90;;;;;;10522800;28;20633;-74
2022/11/18 13:13:23;;;;;;;4.53;3.40;;;11.70;99.90;;;;;;10538550;28;20736;-74
2022/11/18 13:18:24;;;;;;;6.60;3.37;;;12.10;99.90;;;;;;10522695;28;20230;-74
2022/11/18 13:29:25;;;;;;;4.87;2.90;;;12.70;99.90;;;;;;10522720;28;20216;-74
2022/11/18 13:34:28;;;;;;;5.40;2.80;;;12.80;99.90;;;;;;10507499;28;20247;-74
2022/11/18 13:39:31;;;;;;;4.07;2.60;;;12.70;99.90;;;;;;10553882;27;20723;-74
2022/11/18 13:44:37;;;;;;;5.33;2.73;;;12.50;99.90;;;;;;10522205;28;20209;-74
2022/11/18 13:50:05;;;;;;;4.30;2.30;;;12.40;99.90;;;;;;10554084;27;20221;-74
2022/11/18 13:55:13;;;;;;;4.00;2.20;;;12.30;99.90;;;;;;10514268;28;20227;-74
2022/11/18 14:00:23;;;;;;;6.60;2.40;;;12.20;99.90;;;;;;10515780;28;20205;-72
2022/11/18 14:05:24;;;;;;;5.73;2.00;;;12.00;99.90;;;;;;10522089;28;20268;-73
2022/11/18 14:10:51;;;;;;;8.27;2.07;;;11.90;99.90;;;;;;10549620;28;20225;-74
2022/11/18 14:16:00;;;;;;;4.80;1.47;;;11.60;99.90;;;;;;10534015;28;20217;-74
2022/11/18 14:21:04;;;;;;;5.03;1.40;;;11.30;99.90;;;;;;10535047;28;20260;-74
2022/11/18 14:26:06;;;;;;;3.67;0.90;;;11.10;99.90;;;;;;10534693;28;20591;-74
2022/11/18 14:31:24;;;;;;;3.83;1.40;;;10.90;99.90;;;;;;10534487;28;20271;-73
2022/11/18 14:36:24;;;;;;;4.40;1.23;;;10.70;99.90;;;;;;10530029;28;20218;-74
2022/11/18 14:46:48;;;;;;;4.80;1.03;;;10.40;99.90;;;;;;10533370;28;20248;-76
2022/11/18 14:52:01;;;;;;;5.17;1.83;;;10.30;99.90;;;;;;10536412;28;20695;-74
2022/11/18 14:57:03;;;;;;;8.13;1.50;;;10.10;99.90;;;;;;10533775;28;20226;-74
2022/11/18 15:02:04;;;;;;;4.60;1.33;;;10.00;99.90;;;;;;10528246;28;20224;-73
2022/11/18 15:07:05;;;;;;;5.30;1.90;;;9.90;99.90;;;;;;10536075;28;20217;-73
2022/11/18 15:12:05;;;;;;;4.63;1.43;;;9.80;99.90;;;;;;10531125;27;20727;-74
2022/11/18 15:17:06;;;;;;;1.80;1.40;;;9.70;99.90;;;;;;10529868;28;20232;-75
2022/11/18 15:22:07;;;;;;;5.17;1.73;;;9.50;99.90;;;;;;10526507;28;20221;-74
2022/11/18 15:27:09;;;;;;;2.87;1.67;;;9.30;99.90;;;;;;10560905;27;20252;-76
2022/11/18 15:32:10;;;;;;;3.70;1.90;;;9.20;99.90;;;;;;10525894;28;20977;-74
2022/11/18 15:37:11;;;;;;;5.67;2.00;;;9.00;99.90;;;;;;10530264;28;20247;-75
2022/11/18 15:42:12;;;;;;;4.53;2.83;;;8.90;99.90;;;;;;10528460;28;20221;-73
2022/11/18 15:47:13;;;;;;;7.87;2.90;;;8.80;99.90;;;;;;10531793;28;20225;-75
2022/11/18 15:52:13;;;;;;;3.77;2.67;;;8.70;99.90;;;;;;10528725;28;20224;-75
2022/11/18 15:57:14;;;;;;;5.33;3.40;;;8.60;99.90;;;;;;10530498;28;20237;-75
2022/11/18 16:02:15;;;;;;;6.50;2.70;;;8.50;99.90;;;;;;10527354;28;20221;-74
2022/11/18 16:07:15;;;;;;;9.43;2.77;;;8.50;99.90;;;;;;10529895;28;20224;-72
2022/11/18 16:17:35;;;;;;;4.83;1.90;;;8.40;99.90;;;;;;10529654;28;20659;-74
2022/11/18 16:22:36;;;;;;;5.73;2.17;;;8.40;99.90;;;;;;10529205;28;20220;-74
2022/11/18 16:27:36;;;;;;;8.50;2.27;;;8.40;99.90;;;;;;10528153;28;20277;-76
2022/11/18 16:32:37;;;;;;;4.93;2.23;;;8.50;99.90;;;;;;10526940;28;20332;-78
2022/11/18 16:37:37;;;;;;;3.03;1.87;;;8.50;99.90;;;;;;10531479;28;20710;-78
2022/11/18 16:42:38;;;;;;;4.87;1.90;;;8.60;99.90;;;;;;10561742;27;20355;-77
2022/11/18 16:47:38;;;;;;;5.67;2.33;;;8.70;99.90;;;;;;10550943;27;20504;-79
2022/11/18 16:52:39;;;;;;;4.63;2.33;;;8.70;99.90;;;;;;10522605;28;20226;-82
2022/11/18 16:57:40;;;;;;;5.33;2.60;;;8.80;99.90;;;;;;10527273;28;20242;-74
2022/11/18 17:02:40;;;;;;;7.03;1.90;;;8.90;99.90;;;;;;10524597;28;20219;-79
2022/11/18 17:07:44;;;;;;;2.53;2.20;;;8.90;99.90;;;;;;10510592;28;20696;-80
2022/11/18 17:12:46;;;;;;;6.70;2.50;;;9.00;99.90;;;;;;10513187;28;20225;-78
2022/11/18 17:17:47;;;;;;;6.10;3.23;;;9.00;99.90;;;;;;10508405;28;20611;-79
2022/11/18 17:22:51;;;;;;;8.90;4.70;;;9.00;99.90;;;;;;10537495;27;20216;-78
2022/11/18 17:27:51;;;;;;;6.67;4.07;;;9.00;99.90;;;;;;10515287;28;20217;-77
2022/11/18 17:32:53;;;;;;;8.87;3.73;;;9.00;99.90;;;;;;10509318;28;20225;-79
2022/11/18 17:37:54;;;;;;;9.50;3.30;;;8.90;99.90;;;;;;10514551;28;20239;-77
2022/11/18 17:42:54;;;;;;;5.87;3.60;;;8.80;99.90;;;;;;10514015;28;20630;-77
2022/11/18 17:47:56;;;;;;;7.20;5.10;;;8.80;99.90;;;;;;10505946;28;20304;-79
2022/11/18 17:52:56;;;;;;;8.70;3.90;;;8.70;99.90;;;;;;10514875;28;20246;-79
2022/11/18 17:57:57;;;;;;;8.07;3.77;;;8.70;99.90;;;;;;10541352;27;20236;-78
2022/11/18 18:02:58;;;;;;;6.80;3.03;;;8.60;99.90;;;;;;10554425;28;20275;-79
2022/11/18 18:07:59;;;;;;;7.00;2.90;;;8.60;99.90;;;;;;10540231;27;20853;-79
2022/11/18 18:18:18;;;;;;;5.10;3.47;;;8.40;99.90;;;;;;10509075;28;20623;-79
2022/11/18 18:23:19;;;;;;;5.60;4.00;;;8.30;99.90;;;;;;10513028;28;20217;-79
2022/11/18 18:28:20;;;;;;;6.73;4.73;;;8.30;99.90;;;;;;10508965;28;20221;-78
2022/11/18 18:33:22;;;;;;;8.70;4.50;;;8.30;99.90;;;;;;10515743;28;20228;-78
2022/11/18 18:38:23;;;;;;;11.87;5.33;;;8.30;99.90;;;;;;10514093;28;20228;-78
2022/11/18 18:43:23;;;;;;;7.93;4.73;;;8.30;99.90;;;;;;10547936;28;20212;-79
2022/11/18 18:48:24;;;;;;;7.33;4.10;;;8.30;99.90;;;;;;10545025;28;20232;-79
2022/11/18 18:53:24;;;;;;;10.40;4.83;;;8.40;99.90;;;;;;10509345;28;20318;-77
2022/11/18 18:58:26;;;;;;;6.83;3.50;;;8.40;99.90;;;;;;10511946;28;20226;-79
2022/11/18 19:03:26;;;;;;;6.63;4.07;;;8.40;99.90;;;;;;10521611;28;20268;-79
2022/11/18 19:08:28;;;;;;;8.40;4.37;;;8.50;99.90;;;;;;10521949;28;20251;-80
2022/11/18 19:13:29;;;;;;;11.97;4.87;;;8.50;99.90;;;;;;10549998;27;20255;-78
2022/11/18 19:18:33;;;;;;;7.50;4.47;;;8.50;99.90;;;;;;10518434;28;20234;-79
2022/11/18 19:23:34;;;;;;;8.23;5.23;;;8.50;99.90;;;;;;10520620;28;20229;-80
2022/11/18 19:28:37;;;;;;;7.37;4.47;;;8.50;99.90;;;;;;10516842;28;20617;-79
2022/11/18 19:33:38;;;;;;;8.67;5.90;;;8.60;99.90;;;;;;10548629;27;20270;-78
2022/11/18 19:38:39;;;;;;;6.47;4.00;;;8.60;99.90;;;;;;10517173;28;20298;-79
2022/11/18 19:43:39;;;;;;;6.90;4.67;;;8.60;99.90;;;;;;10523546;28;20212;-79
2022/11/18 19:48:47;;;;;;;6.60;3.67;;;8.60;99.90;;;;;;10516582;28;20647;-78
2022/11/18 19:53:48;;;;;;;5.27;3.47;;;8.70;99.90;;;;;;10513657;28;20228;-78
2022/11/18 19:58:49;;;;;;;6.70;3.70;;;8.70;99.90;;;;;;10520148;28;20247;-78
2022/11/18 20:03:52;;;;;;;6.93;3.33;;;8.80;99.90;;;;;;10543411;27;20262;-77
2022/11/18 20:08:56;;;;;;;6.40;3.43;;;8.80;99.90;;;;;;10517503;28;20605;-77
2022/11/18 20:13:56;;;;;;;7.67;3.90;;;8.90;99.90;;;;;;10510404;28;20318;-77
2022/11/18 20:19:00;;;;;;;8.80;4.17;;;8.90;99.90;;;;;;10551859;27;20362;-79
2022/11/18 20:24:02;;;;;;;5.63;3.33;;;8.90;99.90;;;;;;10517648;28;20218;-79
2022/11/18 20:29:04;;;;;;;8.10;3.40;;;9.00;99.90;;;;;;10518342;28;20256;-79
2022/11/18 20:34:04;;;;;;;4.07;3.40;;;9.00;99.90;;;;;;10509690;28;20222;-77
2022/11/18 20:39:15;;;;;;;5.53;3.77;;;9.10;99.90;;;;;;10547152;27;20233;-79
2022/11/18 20:44:15;;;;;;;6.57;3.87;;;9.00;99.90;;;;;;10517540;28;20218;-77
2022/11/18 20:49:16;;;;;;;9.10;6.20;;;9.10;99.90;;;;;;10519045;28;20220;-79
2022/11/18 20:54:16;;;;;;;20.40;14.13;;;9.00;99.90;;;;;;10515153;28;20270;-78
2022/11/18 20:59:17;;;;;;;16.17;11.57;;;9.00;99.90;;;;;;10520636;28;20214;-77
2022/11/18 21:04:17;;;;;;;6.47;4.67;;;9.00;99.90;;;;;;10516497;28;20328;-77
2022/11/18 21:09:18;;;;;;;4.70;3.83;;;9.00;99.90;;;;;;10543190;27;20228;-78
2022/11/18 21:14:20;;;;;;;6.07;3.07;;;9.10;99.90;;;;;;10547332;27;20710;-79
2022/11/18 21:19:21;;;;;;;5.67;3.30;;;9.10;99.90;;;;;;10513593;28;20225;-78
2022/11/18 21:24:30;;;;;;;4.53;2.73;;;9.00;99.90;;;;;;10509140;28;20218;-79
2022/11/18 21:29:32;;;;;;;5.60;3.00;;;9.00;99.90;;;;;;10549317;27;20250;-78
2022/11/18 21:34:32;;;;;;;4.43;2.83;;;9.00;99.90;;;;;;10544999;27;20583;-79
2022/11/18 21:39:33;;;;;;;6.40;3.57;;;8.90;99.90;;;;;;10548089;27;20221;-79
2022/11/18 21:44:33;;;;;;;4.83;3.47;;;8.80;99.90;;;;;;10543554;27;20270;-79
2022/11/18 21:49:34;;;;;;;4.33;3.10;;;8.60;99.90;;;;;;10543817;27;20228;-79
2022/11/18 21:54:35;;;;;;;4.73;3.50;;;8.60;99.90;;;;;;10510523;28;20224;-79
2022/11/18 21:59:36;;;;;;;7.63;4.07;;;8.50;99.90;;;;;;10515181;28;20437;-79
2022/11/18 22:04:51;;;;;;;5.13;3.67;;;8.50;99.90;;;;;;10515502;28;20707;-79
2022/11/18 22:09:54;;;;;;;7.07;4.37;;;8.50;99.90;;;;;;10508330;28;20703;-79
2022/11/18 22:14:54;;;;;;;5.53;4.37;;;8.60;99.90;;;;;;10538615;28;20632;-77
2022/11/18 22:19:55;;;;;;;8.77;4.60;;;8.60;99.90;;;;;;10512859;28;20241;-78
2022/11/18 22:24:55;;;;;;;5.37;3.73;;;8.60;99.90;;;;;;10537152;27;20250;-79
2022/11/18 22:29:56;;;;;;;6.50;4.10;;;8.60;99.90;;;;;;10513595;28;20234;-78
2022/11/18 22:34:56;;;;;;;6.00;3.87;;;8.50;99.90;;;;;;10507669;28;20560;-74
2022/11/18 22:39:57;;;;;;;6.27;3.90;;;8.50;99.90;;;;;;10520720;28;20237;-74
2022/11/18 22:44:57;;;;;;;5.40;3.87;;;8.40;99.90;;;;;;10546470;27;20248;-77
2022/11/18 22:49:58;;;;;;;5.60;3.97;;;8.30;99.90;;;;;;10521439;28;20307;-74
2022/11/18 22:54:58;;;;;;;6.47;3.73;;;8.30;99.90;;;;;;10546623;27;20221;-75
2022/11/18 22:59:59;;;;;;;4.93;4.27;;;8.10;99.90;;;;;;10553732;27;20330;-74
2022/11/18 23:04:59;;;;;;;7.17;5.40;;;8.00;99.90;;;;;;10524508;28;20277;-74
2022/11/18 23:10:00;;;;;;;5.87;5.00;;;7.90;99.90;;;;;;10521143;28;20564;-77
2022/11/18 23:15:01;;;;;;;8.43;5.93;;;7.90;99.90;;;;;;10544896;27;20591;-77
2022/11/18 23:20:01;;;;;;;11.87;7.77;;;7.90;99.90;;;;;;10552469;27;20285;-75
2022/11/18 23:25:03;;;;;;;12.87;9.73;;;7.90;99.90;;;;;;10544721;27;20216;-76
2022/11/18 23:30:04;;;;;;;7.57;6.37;;;8.00;99.90;;;;;;10517799;28;20228;-77
2022/11/18 23:35:05;;;;;;;7.23;6.20;;;8.10;99.90;;;;;;10519061;28;20229;-76
2022/11/18 23:40:06;;;;;;;10.67;6.70;;;8.20;99.90;;;;;;10553275;27;20220;-77
2022/11/18 23:45:08;;;;;;;8.40;6.77;;;8.20;99.90;;;;;;10511974;28;20546;-76
2022/11/18 23:50:09;;;;;;;10.73;6.50;;;8.30;99.90;;;;;;10554878;27;20191;-78
2022/11/18 23:55:09;;;;;;;9.77;7.00;;;8.30;99.90;;;;;;10551246;27;20187;-77
